Madison Plateau, WY

11:18 AM MST on December 07, 2016 (GMT -0700)
Yellowstone | | Change Station
Active Advisory: Winter Storm Watch

Elev 6644 ft 44.69 °N, 111.12 °W | Updated 8 minutes ago

Clear
Clear
-2 °F
Feels Like -10 °F
N
4
Wind Variable Wind from ENE

Today
High -- | Low -- °F
--% Chance of Precip.
Yesterday
High -- | Low -- °F
Precip. -- in
Pressure 30.17 in
Visibility 10.0 miles
Clouds Clear
Windchill -10 °F
Dew Point -9 °F
Humidity 71%
Rainfall 0.00 in
Snow Depth Not available.
7:46 AM 4:44 PM
First Quarter, 54% visible
METAR KWYS 071810Z AUTO 06003KT 10SM CLR M19/M23 A3017 RMK AO2
Pressure 30.17 in
Visibility 10.0 miles
Clouds Clear
Windchill -10 °F
Dew Point -9 °F
Humidity 71%
Rainfall 0.00 in
Snow Depth Not available.
7:46 AM 4:44 PM
First Quarter, 54% visible
METAR KWYS 071810Z AUTO 06003KT 10SM CLR M19/M23 A3017 RMK AO2

10-Day Weather Forecast

Almanac

Astronomy

Dec. 07, 2016 Rise Set
Actual Time
Civil Twilight
Nautical Twilight
Astronomical Twilight
Moon
Length of Visible Light
Length of Day
Tomorrow will be .
, % of the Moon is Illuminated

Today's Extremes

State Highs State Lows

Community

WunderPhotos

Upload Photos

1,956,157 photos uploaded!

WunderBlog® & News

Nearby

Air Quality

  Air Quality AQ Index Pollutant
Not available.

Snow Depth

Station Depth Elevation

Earthquake Activity

City Distance Mag. Time & Date
Minimum magnitude displayed is 2.5.

Coastal Water Temperatures

Place Temperature

Stations

Nearby Weather Stations

Station Location Temp. Windchill Dew Point Humidity Wind Precip. Elev Updated Type
                   

Watches & Warnings

Winter Storm Watch
Issued: 3:30 AM MST Dec. 7, 2016 – National Weather Service

... Winter Storm Watch in effect from Thursday afternoon through
Saturday morning...

The National Weather Service in Riverton has issued a Winter
Storm Watch... which is in effect from Thursday afternoon through
Saturday morning.

* Timing... snow will likely begin by late Thursday afternoon.
Snowfall will become heavy at times Thursday night and will
likely continue through Saturday morning. There will likely be
one final burst of snowfall around mid day Saturday. Snowfall
will decrease to snow showers Saturday afternoon.

* Total snowfall... 3 to 6 inches in the northern portion of the
park around Mammoth, 6 to 10 inches in the central portion of
the park and up to 10 to 20 inches possible over the southwest
portion of the park.

* Wind and visibility... west winds of 15 to 30 may result in
blowing and drifting snow along with lowered visibility down to
one quarter of a mile.

* Impacts... roads may become slick and snow packed with limited
visibility at times. People planning outdoor activities should
be prepared for adverse winter weather conditions and take the
proper precautions.

Precautionary/preparedness actions...

A Winter Storm Watch means there is a potential for significant
snow and/or blowing snow that may impact travel. Continue to
monitor the latest forecasts.